Estación Meteorológica Peña el Pijo (Robertgarden) [ 01/30/23 14:12:48 CET ]

Fecha Hora Presion(HPa) Temp (°C) Humedad % Rocio (°C) Viento ( m/s) Direccion Lluvia 1Hora(mm) Lluvia 24H(mm) LLuvia Total(mm)
2010-Aug-17 01:01:16 1015.500 16.7 93 15.6       6.21 142.96
2010-Aug-17 02:01:20 1015.600 16.6 94 15.6       6.21 142.96
2010-Aug-17 03:01:14 1015.200 16.6 94 15.6       6.21 142.96
2010-Aug-17 04:01:17 1015.000 16.6 94 15.6       6.21 142.96
2010-Aug-17 05:01:20 1014.700 16.4 95 15.6       6.21 142.96
2010-Aug-17 06:01:18 1014.400 16.3 95 15.5     6.21 12.43 149.18
2010-Aug-17 07:01:12 1014.400 15.4 95 14.6       12.43 149.18
2010-Aug-17 08:01:16 1014.700 15.3 95 14.5       12.43 149.18
2010-Aug-17 09:01:13 1015.000 15.8 95 15.0       12.43 149.18
2010-Aug-17 10:01:17 1015.100 16.8 94 15.8       12.43 149.18
2010-Aug-17 11:01:17 1015.400 16.9 94 15.9       12.43 149.18
2010-Aug-17 12:01:15 1015.600 17.5 91 16.1       12.43 149.18
2010-Aug-17 13:01:11 1015.500 17.4 90 15.8       12.43 149.18
2010-Aug-17 14:01:13 1015.600 16.5 92 15.2       12.43 149.18
2010-Aug-17 15:01:14 1015.100 17.2 92 15.9       12.43 149.18
2010-Aug-17 16:01:12 1014.300 19.1 84 16.3       12.43 149.18
2010-Aug-17 17:01:36 1013.700 20.5 77 16.3       12.43 149.18
2010-Aug-17 18:01:39 1013.300 20.9 77 16.7       12.43 149.18
2010-Aug-17 19:01:40 1012.800 20.9 77 16.7       11.39 149.18
2010-Aug-17 20:01:40 1012.100 19.8 77 15.7       8.28 149.18
2010-Aug-17 21:01:13 1012.500 17.9 85 15.3       8.28 149.18
2010-Aug-17 22:01:17 1013.100 16.4 89 14.6       6.21 149.18
2010-Aug-17 23:01:16 1013.800 16.1 92 14.8       6.21 149.18

Temperatura Máxima:20°    Temperatura Mínima:15°
Presión Máxima:1015.600 Hpa    Presión Mínima:1012.100 Hpa


Volver